Terminal Aerodrome Forecast
Issued by NWS

Home | Current Version | Previous Version | Graphics & Text | Print | Product List | Glossary On
Versions: 1 2 3 4 5 6 7 8 9 10 11 12 13 14
000
FTUS43 KGRB 201100 RRA
TAFAUW
TAF
KAUW 201144Z 2012/2112 17008KT P6SM BKN050 OVC080 WS010/23035KT
      TEMPO 2012/2014 -SHRA
     FM201400 21006KT P6SM BKN040 OVC070
      TEMPO 2014/2016 -SHRA
     FM210000 08005KT P6SM -SHRA BKN035 OVC050
     FM210400 09005KT 4SM -SHRA BR BKN020 OVC035
      TEMPO 2107/2110 2SM -SHRA BR BKN012
     FM211000 09005KT 2SM BR BKN008 OVC012=

USA.gov is the U.S. government's official web portal to all federal, state and local government web resources and services.